CST,Max TemperatureF,Mean TemperatureF,Min TemperatureF,Max Dew PointF,MeanDew PointF,Min DewpointF,Max Humidity, Mean Humidity, Min Humidity, Max Sea Level PressureIn, Mean Sea Level PressureIn, Min Sea Level PressureIn, Max VisibilityMiles, Mean VisibilityMiles, Min VisibilityMiles, Max Wind SpeedMPH, Mean Wind SpeedMPH, Max Gust SpeedMPH,PrecipitationIn, CloudCover, Events, WindDirDegrees
2013-2-1,67,50,32,37,29,24,78,50,22,30.34,30.21,30.07,10,10,10,21,7,29,0.00,0,,161
2013-2-2,65,53,40,43,31,21,86,53,19,30.34,30.23,30.06,10,10,10,17,8,24,0.00,0,,11
2013-2-3,68,49,30,46,31,19,85,52,18,30.34,30.15,29.88,10,10,10,36,10,63,0.00,0,,167
2013-2-4,75,63,50,48,40,30,67,45,23,29.90,29.83,29.75,10,10,10,21,12,26,0.00,0,,276
2013-2-5,75,56,36,47,31,20,77,45,13,30.00,29.94,29.89,10,10,10,13,4,17,0.00,0,,120
2013-2-6,77,64,51,54,51,44,100,67,33,29.96,29.87,29.74,10,7,1,20,10,24,0.00,2,,161
2013-2-7,69,58,46,55,45,36,93,65,36,30.17,29.94,29.77,10,10,8,25,14,31,0.00,0,,314
2013-2-8,63,48,32,36,24,15,85,51,16,30.25,30.16,30.02,10,10,10,14,6,17,0.00,0,,90
2013-2-9,64,57,50,58,48,23,93,63,32,30.01,29.78,29.63,10,10,2,33,20,39,0.21,5,Rain,163
2013-2-10,66,52,37,50,19,12,51,32,13,29.99,29.86,29.71,10,10,6,26,13,33,0.00,1,,268
2013-2-11,58,48,38,41,32,24,71,55,38,30.10,30.01,29.95,10,10,10,18,10,22,T,7,Rain,101
2013-2-12,53,46,38,46,40,31,100,87,74,30.12,29.95,29.84,10,8,2,28,11,32,0.02,8,Rain,337
2013-2-13,60,44,28,32,26,20,100,60,20,30.15,30.07,29.99,10,10,10,16,6,29,0.00,0,,259
2013-2-14,68,53,37,33,23,17,54,35,15,30.06,30.00,29.93,10,10,10,18,9,24,0.00,0,,178
2013-2-15,49,39,28,35,24,12,85,54,23,30.40,30.32,30.09,10,10,10,18,11,26,0.00,5,,17
2013-2-16,64,45,25,25,21,18,75,47,18,30.43,30.29,30.11,10,10,10,17,7,23,0.00,0,,226
2013-2-17,72,59,46,44,26,16,46,29,12,30.09,29.92,29.76,10,10,10,31,19,38,0.00,0,,195
2013-2-18,68,56,44,50,34,21,83,51,18,30.10,29.88,29.69,10,10,10,30,18,39,0.00,0,,288
2013-2-19,61,49,37,40,26,16,83,51,19,30.25,30.13,30.07,10,10,9,23,11,29,0.12,3,Rain,109
2013-2-20,47,45,42,43,40,37,96,84,71,30.07,29.84,29.61,10,9,2,26,17,33,0.02,8,Rain,110
2013-2-21,63,51,38,48,37,24,100,63,25,29.93,29.70,29.53,10,8,1,33,16,41,0.18,4,Rain-Thunderstorm,284
2013-2-22,50,38,26,28,24,19,76,58,39,30.13,30.06,29.95,10,10,10,20,7,24,0.00,0,,14
2013-2-23,63,45,26,29,23,16,85,51,16,30.07,29.94,29.80,10,10,10,18,6,21,0.00,0,,181
2013-2-24,74,58,42,52,42,29,72,52,31,29.79,29.64,29.49,10,10,10,30,21,37,0.00,0,,162
2013-2-25,61,49,36,54,34,28,92,78,64,29.86,29.67,29.47,10,9,6,37,22,48,0.03,7,Rain,294
2013-2-26,58,44,30,28,26,24,78,53,28,29.94,29.86,29.78,10,10,10,22,9,29,0.00,0,,332
2013-2-27,55,44,32,32,26,17,89,57,24,30.28,30.14,29.84,10,10,10,26,12,33,0.00,1,,344
2013-2-28,58,41,24,29,22,17,88,55,21,30.35,30.27,30.22,10,10,10,18,5,44,0.00,0,,318